createdAt,value
2022-12-04T00:00:21.576Z,40.50
2022-12-04T00:05:21.694Z,38.90
2022-12-04T00:10:21.485Z,39.40
2022-12-04T00:15:26.196Z,38.50
2022-12-04T00:20:22.825Z,36.80
2022-12-04T00:25:21.746Z,38.70
2022-12-04T00:30:21.657Z,37.80
2022-12-04T00:35:21.817Z,37.90
2022-12-04T00:40:21.581Z,33.20
2022-12-04T00:45:21.570Z,39.90
2022-12-04T00:50:21.681Z,36.90
2022-12-04T00:55:21.611Z,36.20
2022-12-04T01:00:22.363Z,39.40
2022-12-04T01:05:21.658Z,36.10
2022-12-04T01:10:22.011Z,36.80
2022-12-04T01:15:21.670Z,38.90
2022-12-04T01:20:21.724Z,37.10
2022-12-04T01:25:21.743Z,35.10
2022-12-04T01:30:22.233Z,39.20
2022-12-04T01:35:21.446Z,38.70
2022-12-04T01:40:21.666Z,39.90
2022-12-04T01:45:37.757Z,38.80
2022-12-04T01:50:21.885Z,37.00
2022-12-04T01:55:21.810Z,36.70
2022-12-04T02:00:21.625Z,32.90
2022-12-04T02:05:22.309Z,35.30
2022-12-04T02:10:26.352Z,31.60
2022-12-04T02:15:26.782Z,30.20
2022-12-04T02:20:30.353Z,32.70
2022-12-04T02:25:29.071Z,33.50
2022-12-04T02:30:21.993Z,25.10
2022-12-04T02:35:25.799Z,26.50
2022-12-04T02:40:25.769Z,28.50
2022-12-04T02:45:26.304Z,28.90
2022-12-04T02:50:23.447Z,30.70
2022-12-04T02:55:28.726Z,31.40
2022-12-04T03:00:21.750Z,30.00
2022-12-04T03:05:26.290Z,30.10
2022-12-04T03:10:26.433Z,32.40
2022-12-04T03:15:27.085Z,31.50
2022-12-04T03:20:23.341Z,30.80
2022-12-04T03:25:27.849Z,29.20
2022-12-04T03:30:22.539Z,30.20
2022-12-04T03:35:25.835Z,28.10
2022-12-04T03:40:25.809Z,27.60
2022-12-04T03:45:25.970Z,28.10
2022-12-04T03:50:29.246Z,24.30
2022-12-04T03:55:26.065Z,30.90
2022-12-04T04:00:22.769Z,28.80
2022-12-04T04:05:23.040Z,32.10
2022-12-04T04:10:25.685Z,31.10
2022-12-04T04:15:31.538Z,30.80
2022-12-04T04:20:36.251Z,34.10
2022-12-04T04:25:24.898Z,31.30
2022-12-04T04:30:22.414Z,33.40
2022-12-04T04:35:29.895Z,33.30
2022-12-04T04:40:26.998Z,29.60
2022-12-04T04:45:26.828Z,32.70
2022-12-04T04:50:21.972Z,30.70
2022-12-04T04:55:22.933Z,31.90
2022-12-04T05:00:22.513Z,31.60
2022-12-04T05:05:21.604Z,29.70
2022-12-04T05:10:21.388Z,27.90
2022-12-04T05:15:21.222Z,30.00
2022-12-04T05:20:21.220Z,31.00
2022-12-04T05:25:21.448Z,29.00
2022-12-04T05:30:21.372Z,30.40
2022-12-04T05:35:21.601Z,30.10
2022-12-04T05:40:21.583Z,27.40
2022-12-04T05:45:21.504Z,29.30
2022-12-04T05:50:21.445Z,30.50
2022-12-04T05:55:21.646Z,29.70
2022-12-04T06:00:21.626Z,30.60
2022-12-04T06:05:21.334Z,30.80
2022-12-04T06:10:21.576Z,28.40
2022-12-04T06:15:21.188Z,32.10
2022-12-04T06:20:21.339Z,29.80
2022-12-04T06:25:21.643Z,31.10
2022-12-04T06:30:21.282Z,25.40
2022-12-04T06:35:21.331Z,27.30
2022-12-04T06:40:21.467Z,25.30
2022-12-04T06:45:21.245Z,28.40
2022-12-04T06:50:21.151Z,26.30
2022-12-04T06:55:21.395Z,27.70
2022-12-04T07:00:21.222Z,27.90
2022-12-04T07:05:21.161Z,26.80
2022-12-04T07:10:21.499Z,23.20
2022-12-04T07:15:21.191Z,25.20
2022-12-04T07:20:21.234Z,28.60
2022-12-04T07:25:21.670Z,27.70
2022-12-04T07:30:21.405Z,28.20
2022-12-04T07:35:21.159Z,29.10
2022-12-04T07:40:21.273Z,28.70
2022-12-04T07:45:21.295Z,30.40
2022-12-04T07:50:21.192Z,27.40
2022-12-04T07:55:23.311Z,29.00
2022-12-04T08:00:21.554Z,29.90
2022-12-04T08:05:21.258Z,32.10
2022-12-04T08:10:21.084Z,29.70
2022-12-04T08:15:21.474Z,30.90
2022-12-04T08:20:21.021Z,31.60
2022-12-04T08:25:21.386Z,32.90
2022-12-04T08:25:46.714Z,32.90
2022-12-04T08:30:21.018Z,30.60
2022-12-04T08:35:21.040Z,28.60
2022-12-04T08:40:22.295Z,26.60
2022-12-04T08:45:21.344Z,24.90
2022-12-04T08:50:21.291Z,27.60
2022-12-04T08:55:16.269Z,28.40
2022-12-04T08:55:20.678Z,28.40
2022-12-04T09:00:21.069Z,28.00
2022-12-04T09:05:21.242Z,23.70
2022-12-04T09:10:20.965Z,25.10
2022-12-04T09:15:21.016Z,26.50
2022-12-04T09:20:21.295Z,27.20
2022-12-04T09:25:21.102Z,24.00
2022-12-04T09:30:20.996Z,25.40
2022-12-04T09:35:21.028Z,23.50
2022-12-04T09:40:25.722Z,26.30
2022-12-04T09:45:24.411Z,25.80
2022-12-04T09:50:23.321Z,23.30
2022-12-04T09:53:27.803Z,24.60
2022-12-04T09:55:25.373Z,24.60
2022-12-04T10:00:21.193Z,23.00
2022-12-04T10:05:34.170Z,23.50
2022-12-04T10:10:29.130Z,23.50
2022-12-04T10:15:28.912Z,25.20
2022-12-04T10:20:34.094Z,22.90
2022-12-04T10:25:22.741Z,22.90
2022-12-04T10:30:24.036Z,23.50
2022-12-04T10:35:24.293Z,24.40
2022-12-04T10:40:25.021Z,23.10
2022-12-04T10:45:22.249Z,23.00
2022-12-04T10:50:23.422Z,23.70
2022-12-04T10:55:30.937Z,23.70
2022-12-04T11:00:26.068Z,23.80
2022-12-04T11:05:27.100Z,24.70
2022-12-04T11:10:25.018Z,25.30
2022-12-04T11:15:21.742Z,24.90
2022-12-04T11:20:23.059Z,25.90
2022-12-04T11:25:22.648Z,23.60
2022-12-04T11:30:33.246Z,23.90
2022-12-04T11:35:24.580Z,27.20
2022-12-04T11:40:22.124Z,26.40
2022-12-04T11:45:22.872Z,24.90
2022-12-04T11:50:32.877Z,23.00
2022-12-04T11:55:28.839Z,24.30
2022-12-04T12:00:22.548Z,24.70
2022-12-04T12:05:31.916Z,26.90
2022-12-04T12:10:26.683Z,26.80
2022-12-04T12:15:31.056Z,24.60
2022-12-04T12:20:23.171Z,25.50
2022-12-04T12:25:27.324Z,25.20
2022-12-04T12:30:22.586Z,25.00
2022-12-04T12:35:26.569Z,26.30
2022-12-04T12:40:29.689Z,24.40
2022-12-04T12:45:27.375Z,26.80
2022-12-04T12:50:25.311Z,24.10
2022-12-04T12:55:23.732Z,25.40
2022-12-04T13:00:22.897Z,22.60
2022-12-04T13:05:25.584Z,23.20
2022-12-04T13:10:25.289Z,20.50
2022-12-04T13:15:33.591Z,22.80
2022-12-04T13:20:24.427Z,23.30
2022-12-04T13:25:33.342Z,24.10
2022-12-04T13:30:23.859Z,23.60
2022-12-04T13:35:30.352Z,21.20
2022-12-04T13:40:28.449Z,22.00
2022-12-04T13:45:26.812Z,22.90
2022-12-04T13:50:27.405Z,24.40
2022-12-04T13:55:25.728Z,21.80
2022-12-04T14:00:28.129Z,20.70
2022-12-04T14:05:26.884Z,19.70
2022-12-04T14:10:25.838Z,20.90
2022-12-04T14:15:23.528Z,20.30
2022-12-04T14:20:24.304Z,17.70
2022-12-04T14:25:33.361Z,17.20
2022-12-04T14:29:43.951Z,18.70
2022-12-04T14:30:23.843Z,18.70
2022-12-04T14:35:23.661Z,20.10
2022-12-04T14:40:23.928Z,21.00
2022-12-04T14:45:27.717Z,18.80
2022-12-04T14:50:29.003Z,17.90
2022-12-04T14:55:28.834Z,18.70
2022-12-04T14:59:05.516Z,20.20
2022-12-04T15:00:23.476Z,20.20
2022-12-04T15:05:24.725Z,17.60
2022-12-04T15:10:32.751Z,19.40
2022-12-04T15:15:24.269Z,20.00
2022-12-04T15:20:21.530Z,20.70
2022-12-04T15:25:25.128Z,19.90
2022-12-04T15:30:22.846Z,20.90
2022-12-04T15:35:25.043Z,22.50
2022-12-04T15:40:23.452Z,21.60
2022-12-04T15:45:23.168Z,21.50
2022-12-04T15:50:26.193Z,20.40
2022-12-04T15:55:23.468Z,17.00
2022-12-04T16:00:24.895Z,21.80
2022-12-04T16:05:28.120Z,20.80
2022-12-04T16:10:22.982Z,20.70
2022-12-04T16:15:21.947Z,26.00
2022-12-04T16:20:20.746Z,19.50
2022-12-04T16:25:20.720Z,22.00
2022-12-04T16:30:20.823Z,22.10
2022-12-04T16:35:20.762Z,21.50
2022-12-04T16:40:20.788Z,22.20
2022-12-04T16:45:24.521Z,19.50
2022-12-04T16:50:20.837Z,21.50
2022-12-04T16:55:28.217Z,19.40
2022-12-04T17:00:21.028Z,18.00
2022-12-04T17:05:22.636Z,21.80
2022-12-04T17:10:23.994Z,20.70
2022-12-04T17:15:21.459Z,22.80
2022-12-04T17:20:21.770Z,21.00
2022-12-04T17:25:20.793Z,20.50
2022-12-04T17:30:20.846Z,18.80
2022-12-04T17:31:19.239Z,18.80
2022-12-04T17:35:20.650Z,18.20
2022-12-04T17:40:20.643Z,17.40
2022-12-04T17:45:20.965Z,18.70
2022-12-04T17:50:20.636Z,16.70
2022-12-04T17:55:21.190Z,19.80
2022-12-04T18:00:20.762Z,17.30
2022-12-04T18:05:20.901Z,21.30
2022-12-04T18:10:20.533Z,16.80
2022-12-04T18:15:20.978Z,17.10
2022-12-04T18:20:20.532Z,16.80
2022-12-04T18:25:20.736Z,18.90
2022-12-04T18:30:20.813Z,15.10
2022-12-04T18:35:20.484Z,16.80
2022-12-04T18:40:20.688Z,16.70
2022-12-04T18:45:21.476Z,18.00
2022-12-04T18:50:20.478Z,16.70
2022-12-04T18:55:20.575Z,16.20
2022-12-04T19:00:20.822Z,16.00
2022-12-04T19:05:20.428Z,15.80
2022-12-04T19:10:20.536Z,16.10
2022-12-04T19:15:21.458Z,16.40
2022-12-04T19:20:20.662Z,15.70
2022-12-04T19:25:20.580Z,16.70
2022-12-04T19:30:20.510Z,15.40
2022-12-04T19:35:20.475Z,17.00
2022-12-04T19:40:21.461Z,16.20
2022-12-04T19:45:20.424Z,15.70
2022-12-04T19:50:20.562Z,17.90
2022-12-04T19:55:20.689Z,15.90
2022-12-04T20:00:20.490Z,15.30
2022-12-04T20:05:20.562Z,18.10
2022-12-04T20:10:21.322Z,16.80
2022-12-04T20:15:20.550Z,16.90
2022-12-04T20:20:20.546Z,18.10
2022-12-04T20:25:20.746Z,18.30
2022-12-04T20:30:20.393Z,17.10
2022-12-04T20:35:20.404Z,19.20
2022-12-04T20:40:20.690Z,18.50
2022-12-04T20:45:20.639Z,18.50
2022-12-04T20:50:20.643Z,19.50
2022-12-04T20:55:20.601Z,18.00
2022-12-04T21:00:20.433Z,17.70
2022-12-04T21:05:20.737Z,16.20
2022-12-04T21:10:20.359Z,18.60
2022-12-04T21:15:30.320Z,18.20
2022-12-04T21:20:20.370Z,17.10
2022-12-04T21:25:20.461Z,18.80
2022-12-04T21:30:20.336Z,18.00
2022-12-04T21:35:20.506Z,15.50
2022-12-04T21:40:20.370Z,16.40
2022-12-04T21:45:20.449Z,16.70
2022-12-04T21:50:20.345Z,15.90
2022-12-04T21:55:20.425Z,17.00
2022-12-04T22:00:20.410Z,15.40
2022-12-04T22:05:20.529Z,13.90
2022-12-04T22:10:20.557Z,16.00
2022-12-04T22:15:20.454Z,15.60
2022-12-04T22:20:21.001Z,15.90
2022-12-04T22:25:20.286Z,16.60
2022-12-04T22:30:20.644Z,16.10
2022-12-04T22:35:20.356Z,16.30
2022-12-04T22:40:20.443Z,16.40
2022-12-04T22:45:20.511Z,13.90
2022-12-04T22:50:20.369Z,16.20
2022-12-04T22:55:20.393Z,16.30
2022-12-04T23:00:20.715Z,16.20
2022-12-04T23:05:20.275Z,15.70
2022-12-04T23:10:20.264Z,15.80
2022-12-04T23:15:20.289Z,16.30
2022-12-04T23:20:20.362Z,16.00
2022-12-04T23:25:20.683Z,16.70
2022-12-04T23:30:26.145Z,16.30
2022-12-04T23:35:20.279Z,17.30
2022-12-04T23:40:20.379Z,16.50
2022-12-04T23:45:20.604Z,15.70
2022-12-04T23:50:20.437Z,16.50
2022-12-04T23:55:20.318Z,17.20
